sensor_id;sensor_type;location;lat;lon;timestamp;pressure;altitude;pressure_sealevel;temperature;humidity
51289;BME280;37372;52.294;5.152;2023-05-07T00:00:22;101659.50;;;13.16;99.53
51289;BME280;37372;52.294;5.152;2023-05-07T00:02:47;101661.63;;;13.14;99.52
51289;BME280;37372;52.294;5.152;2023-05-07T00:05:20;101662.53;;;13.08;99.45
51289;BME280;37372;52.294;5.152;2023-05-07T00:07:50;101660.69;;;13.01;99.61
51289;BME280;37372;52.294;5.152;2023-05-07T00:10:24;101652.50;;;12.95;99.79
51289;BME280;37372;52.294;5.152;2023-05-07T00:12:50;101665.88;;;12.91;99.83
51289;BME280;37372;52.294;5.152;2023-05-07T00:15:22;101664.56;;;12.94;100.00
51289;BME280;37372;52.294;5.152;2023-05-07T00:17:48;101661.81;;;12.94;100.00
51289;BME280;37372;52.294;5.152;2023-05-07T00:20:13;101659.53;;;12.91;100.00
51289;BME280;37372;52.294;5.152;2023-05-07T00:22:41;101650.03;;;12.87;100.00
51289;BME280;37372;52.294;5.152;2023-05-07T00:25:07;101650.50;;;12.84;100.00
51289;BME280;37372;52.294;5.152;2023-05-07T00:27:37;101646.50;;;12.80;100.00
51289;BME280;37372;52.294;5.152;2023-05-07T00:30:11;101645.47;;;12.74;100.00
51289;BME280;37372;52.294;5.152;2023-05-07T00:32:38;101640.19;;;12.72;100.00
51289;BME280;37372;52.294;5.152;2023-05-07T00:35:06;101648.47;;;12.72;100.00
51289;BME280;37372;52.294;5.152;2023-05-07T00:37:32;101644.63;;;12.73;100.00
51289;BME280;37372;52.294;5.152;2023-05-07T00:39:58;101644.25;;;12.70;100.00
51289;BME280;37372;52.294;5.152;2023-05-07T00:42:24;101642.59;;;12.69;100.00
51289;BME280;37372;52.294;5.152;2023-05-07T00:44:49;101650.19;;;12.67;100.00
51289;BME280;37372;52.294;5.152;2023-05-07T00:47:16;101645.53;;;12.67;100.00
51289;BME280;37372;52.294;5.152;2023-05-07T00:49:44;101644.94;;;12.65;100.00
51289;BME280;37372;52.294;5.152;2023-05-07T00:52:16;101635.44;;;12.61;100.00
51289;BME280;37372;52.294;5.152;2023-05-07T00:54:47;101641.78;;;12.62;100.00
51289;BME280;37372;52.294;5.152;2023-05-07T00:57:13;101630.81;;;12.55;100.00
51289;BME280;37372;52.294;5.152;2023-05-07T00:59:48;101635.72;;;12.53;100.00
51289;BME280;37372;52.294;5.152;2023-05-07T01:02:14;101637.16;;;12.56;100.00
51289;BME280;37372;52.294;5.152;2023-05-07T01:04:39;101634.63;;;12.54;100.00
51289;BME280;37372;52.294;5.152;2023-05-07T01:07:12;101641.22;;;12.53;100.00
51289;BME280;37372;52.294;5.152;2023-05-07T01:09:38;101635.94;;;12.52;100.00
51289;BME280;37372;52.294;5.152;2023-05-07T01:12:04;101639.72;;;12.57;100.00
51289;BME280;37372;52.294;5.152;2023-05-07T01:14:31;101639.88;;;12.62;100.00
51289;BME280;37372;52.294;5.152;2023-05-07T01:16:58;101635.59;;;12.66;100.00
51289;BME280;37372;52.294;5.152;2023-05-07T01:19:28;101633.44;;;12.68;100.00
51289;BME280;37372;52.294;5.152;2023-05-07T01:22:03;101636.59;;;12.72;100.00
51289;BME280;37372;52.294;5.152;2023-05-07T01:24:32;101636.53;;;12.79;100.00
51289;BME280;37372;52.294;5.152;2023-05-07T01:26:59;101646.25;;;12.81;100.00
51289;BME280;37372;52.294;5.152;2023-05-07T01:29:39;101635.47;;;12.80;100.00
51289;BME280;37372;52.294;5.152;2023-05-07T01:32:06;101632.94;;;12.78;100.00
51289;BME280;37372;52.294;5.152;2023-05-07T01:34:32;101636.13;;;12.75;100.00
51289;BME280;37372;52.294;5.152;2023-05-07T01:37:00;101635.94;;;12.77;100.00
51289;BME280;37372;52.294;5.152;2023-05-07T01:39:27;101637.56;;;12.84;100.00
51289;BME280;37372;52.294;5.152;2023-05-07T01:41:55;101636.03;;;12.88;100.00
51289;BME280;37372;52.294;5.152;2023-05-07T01:44:22;101632.66;;;12.86;100.00
51289;BME280;37372;52.294;5.152;2023-05-07T01:46:49;101633.34;;;12.82;100.00
51289;BME280;37372;52.294;5.152;2023-05-07T01:49:15;101632.72;;;12.80;100.00
51289;BME280;37372;52.294;5.152;2023-05-07T01:51:42;101629.97;;;12.80;100.00
51289;BME280;37372;52.294;5.152;2023-05-07T01:54:08;101624.69;;;12.78;100.00
51289;BME280;37372;52.294;5.152;2023-05-07T01:56:34;101637.38;;;12.79;100.00
51289;BME280;37372;52.294;5.152;2023-05-07T01:59:00;101627.69;;;12.77;100.00
51289;BME280;37372;52.294;5.152;2023-05-07T02:01:25;101637.00;;;12.76;100.00
51289;BME280;37372;52.294;5.152;2023-05-07T02:03:51;101627.28;;;12.73;100.00
51289;BME280;37372;52.294;5.152;2023-05-07T02:06:16;101632.41;;;12.69;100.00
51289;BME280;37372;52.294;5.152;2023-05-07T02:08:42;101632.84;;;12.66;100.00
51289;BME280;37372;52.294;5.152;2023-05-07T02:11:11;101643.06;;;12.59;100.00
51289;BME280;37372;52.294;5.152;2023-05-07T02:13:41;101637.56;;;12.59;100.00
51289;BME280;37372;52.294;5.152;2023-05-07T02:16:06;101633.75;;;12.60;100.00
51289;BME280;37372;52.294;5.152;2023-05-07T02:18:32;101629.53;;;12.58;100.00
51289;BME280;37372;52.294;5.152;2023-05-07T02:20:57;101631.81;;;12.61;100.00
51289;BME280;37372;52.294;5.152;2023-05-07T02:23:23;101633.06;;;12.65;100.00
51289;BME280;37372;52.294;5.152;2023-05-07T02:25:51;101627.81;;;12.63;100.00
51289;BME280;37372;52.294;5.152;2023-05-07T02:28:18;101625.25;;;12.62;100.00
51289;BME280;37372;52.294;5.152;2023-05-07T02:30:53;101631.88;;;12.54;100.00
51289;BME280;37372;52.294;5.152;2023-05-07T02:33:18;101627.63;;;12.58;100.00
51289;BME280;37372;52.294;5.152;2023-05-07T02:35:52;101635.44;;;12.61;100.00
51289;BME280;37372;52.294;5.152;2023-05-07T02:38:24;101634.81;;;12.59;100.00
51289;BME280;37372;52.294;5.152;2023-05-07T02:40:52;101634.81;;;12.59;100.00
51289;BME280;37372;52.294;5.152;2023-05-07T02:43:18;101631.81;;;12.61;100.00
51289;BME280;37372;52.294;5.152;2023-05-07T02:45:43;101626.16;;;12.56;100.00
51289;BME280;37372;52.294;5.152;2023-05-07T02:48:08;101629.72;;;12.63;100.00
51289;BME280;37372;52.294;5.152;2023-05-07T02:50:34;101633.75;;;12.60;100.00
51289;BME280;37372;52.294;5.152;2023-05-07T02:53:00;101632.06;;;12.59;100.00
51289;BME280;37372;52.294;5.152;2023-05-07T02:55:26;101632.06;;;12.59;100.00
51289;BME280;37372;52.294;5.152;2023-05-07T02:57:51;101637.97;;;12.63;100.00
51289;BME280;37372;52.294;5.152;2023-05-07T03:00:24;101636.66;;;12.65;100.00
51289;BME280;37372;52.294;5.152;2023-05-07T03:02:54;101630.56;;;12.63;100.00
51289;BME280;37372;52.294;5.152;2023-05-07T03:05:23;101629.91;;;12.61;100.00
51289;BME280;37372;52.294;5.152;2023-05-07T03:07:48;101631.00;;;12.60;100.00
51289;BME280;37372;52.294;5.152;2023-05-07T03:10:14;101624.66;;;12.60;100.00
51289;BME280;37372;52.294;5.152;2023-05-07T03:12:40;101629.06;;;12.61;100.00
51289;BME280;37372;52.294;5.152;2023-05-07T03:15:07;101626.31;;;12.61;100.00
51289;BME280;37372;52.294;5.152;2023-05-07T03:18:01;101626.97;;;12.63;100.00
51289;BME280;37372;52.294;5.152;2023-05-07T03:20:27;101625.88;;;12.64;100.00
51289;BME280;37372;52.294;5.152;2023-05-07T03:22:53;101620.75;;;12.67;100.00
51289;BME280;37372;52.294;5.152;2023-05-07T03:25:18;101619.25;;;12.71;100.00
51289;BME280;37372;52.294;5.152;2023-05-07T03:27:44;101613.75;;;12.71;100.00
51289;BME280;37372;52.294;5.152;2023-05-07T03:30:19;101619.25;;;12.71;100.00
51289;BME280;37372;52.294;5.152;2023-05-07T03:32:45;101613.50;;;12.73;100.00
51289;BME280;37372;52.294;5.152;2023-05-07T03:35:17;101616.25;;;12.73;100.00
51289;BME280;37372;52.294;5.152;2023-05-07T03:37:43;101615.59;;;12.78;100.00
51289;BME280;37372;52.294;5.152;2023-05-07T03:40:08;101614.75;;;12.77;100.00
51289;BME280;37372;52.294;5.152;2023-05-07T03:42:35;101619.63;;;12.75;100.00
51289;BME280;37372;52.294;5.152;2023-05-07T03:45:02;101618.34;;;12.78;100.00
51289;BME280;37372;52.294;5.152;2023-05-07T03:47:27;101619.41;;;12.77;100.00
51289;BME280;37372;52.294;5.152;2023-05-07T03:49:52;101620.88;;;12.79;100.00
51289;BME280;37372;52.294;5.152;2023-05-07T03:52:20;101623.38;;;12.81;100.00
51289;BME280;37372;52.294;5.152;2023-05-07T03:54:49;101620.50;;;12.76;100.00
51289;BME280;37372;52.294;5.152;2023-05-07T03:57:15;101623.31;;;12.69;100.00
51289;BME280;37372;52.294;5.152;2023-05-07T03:59:40;101629.19;;;12.72;100.00
51289;BME280;37372;52.294;5.152;2023-05-07T04:02:06;101629.34;;;12.78;100.00
51289;BME280;37372;52.294;5.152;2023-05-07T04:04:31;101630.81;;;12.80;100.00
51289;BME280;37372;52.294;5.152;2023-05-07T04:06:58;101629.78;;;12.74;100.00
51289;BME280;37372;52.294;5.152;2023-05-07T04:09:24;101634.69;;;12.72;100.00
51289;BME280;37372;52.294;5.152;2023-05-07T04:11:50;101636.00;;;12.70;100.00
51289;BME280;37372;52.294;5.152;2023-05-07T04:14:15;101644.47;;;12.68;100.00
51289;BME280;37372;52.294;5.152;2023-05-07T04:16:41;101650.19;;;12.67;100.00
51289;BME280;37372;52.294;5.152;2023-05-07T04:19:06;101646.19;;;12.69;100.00
51289;BME280;37372;52.294;5.152;2023-05-07T04:21:32;101638.69;;;12.77;100.00
51289;BME280;37372;52.294;5.152;2023-05-07T04:23:58;101625.38;;;12.73;100.00
51289;BME280;37372;52.294;5.152;2023-05-07T04:26:23;101634.88;;;12.78;100.00
51289;BME280;37372;52.294;5.152;2023-05-07T04:28:49;101636.13;;;12.75;100.00
51289;BME280;37372;52.294;5.152;2023-05-07T04:31:17;101642.66;;;12.81;100.00
51289;BME280;37372;52.294;5.152;2023-05-07T04:33:43;101649.25;;;12.80;100.00
51289;BME280;37372;52.294;5.152;2023-05-07T04:36:30;101648.22;;;12.74;100.00
51289;BME280;37372;52.294;5.152;2023-05-07T04:38:58;101651.16;;;12.79;100.00
51289;BME280;37372;52.294;5.152;2023-05-07T04:41:23;101651.75;;;12.81;100.00
51289;BME280;37372;52.294;5.152;2023-05-07T04:43:49;101649.41;;;12.85;100.00
51289;BME280;37372;52.294;5.152;2023-05-07T04:46:23;101643.44;;;12.88;100.00
51289;BME280;37372;52.294;5.152;2023-05-07T04:48:49;101640.91;;;12.86;100.00
51289;BME280;37372;52.294;5.152;2023-05-07T04:51:19;101639.63;;;12.89;100.00
51289;BME280;37372;52.294;5.152;2023-05-07T04:53:45;101641.56;;;12.88;100.00
51289;BME280;37372;52.294;5.152;2023-05-07T04:56:28;101659.75;;;12.89;99.70
51289;BME280;37372;52.294;5.152;2023-05-07T04:58:55;101650.19;;;12.92;100.00
51289;BME280;37372;52.294;5.152;2023-05-07T05:01:21;101657.84;;;12.90;99.97
51289;BME280;37372;52.294;5.152;2023-05-07T05:03:48;101656.00;;;12.84;99.47
51289;BME280;37372;52.294;5.152;2023-05-07T05:06:26;101661.44;;;12.90;99.76
51289;BME280;37372;52.294;5.152;2023-05-07T05:08:52;101659.34;;;12.86;99.08
51289;BME280;37372;52.294;5.152;2023-05-07T05:11:23;101661.44;;;12.90;99.79
51289;BME280;37372;52.294;5.152;2023-05-07T05:13:55;101660.13;;;12.93;99.24
51289;BME280;37372;52.294;5.152;2023-05-07T05:16:29;101664.13;;;12.97;99.59
51289;BME280;37372;52.294;5.152;2023-05-07T05:18:56;101664.72;;;12.99;99.35
51289;BME280;37372;52.294;5.152;2023-05-07T05:21:26;101662.81;;;12.99;99.25
51289;BME280;37372;52.294;5.152;2023-05-07T05:23:55;101668.19;;;13.13;99.35
51289;BME280;37372;52.294;5.152;2023-05-07T05:26:25;101672.66;;;13.14;98.39
51289;BME280;37372;52.294;5.152;2023-05-07T05:28:54;101668.19;;;13.13;98.07
51289;BME280;37372;52.294;5.152;2023-05-07T05:31:29;101669.03;;;13.13;98.11
51289;BME280;37372;52.294;5.152;2023-05-07T05:33:55;101663.44;;;13.20;98.70
51289;BME280;37372;52.294;5.152;2023-05-07T05:36:26;101679.16;;;13.19;97.92
51289;BME280;37372;52.294;5.152;2023-05-07T05:38:53;101681.91;;;13.19;97.79
51289;BME280;37372;52.294;5.152;2023-05-07T05:41:27;101680.06;;;13.13;98.07
51289;BME280;37372;52.294;5.152;2023-05-07T05:43:55;101683.88;;;13.12;98.36
51289;BME280;37372;52.294;5.152;2023-05-07T05:46:24;101682.13;;;13.18;98.67
51289;BME280;37372;52.294;5.152;2023-05-07T05:48:58;101690.97;;;13.26;99.23
51289;BME280;37372;52.294;5.152;2023-05-07T05:51:39;101691.13;;;13.32;98.11
51289;BME280;37372;52.294;5.152;2023-05-07T05:54:06;101689.84;;;13.34;97.98
51289;BME280;37372;52.294;5.152;2023-05-07T05:56:33;101690.47;;;13.36;97.94
51289;BME280;37372;52.294;5.152;2023-05-07T05:59:05;101690.22;;;13.38;98.18
51289;BME280;37372;52.294;5.152;2023-05-07T06:01:39;101687.94;;;13.35;98.24
51289;BME280;37372;52.294;5.152;2023-05-07T06:04:05;101680.94;;;13.32;99.29
51289;BME280;37372;52.294;5.152;2023-05-07T06:06:37;101695.81;;;13.31;99.25
51289;BME280;37372;52.294;5.152;2023-05-07T06:09:03;101687.78;;;13.30;99.37
51289;BME280;37372;52.294;5.152;2023-05-07T06:11:36;101686.63;;;13.37;99.15
51289;BME280;37372;52.294;5.152;2023-05-07T06:14:02;101690.47;;;13.36;99.21
51289;BME280;37372;52.294;5.152;2023-05-07T06:16:31;101699.41;;;13.32;99.71
51289;BME280;37372;52.294;5.152;2023-05-07T06:19:07;101701.88;;;13.40;99.82
51289;BME280;37372;52.294;5.152;2023-05-07T06:21:35;101698.03;;;13.41;99.56
51289;BME280;37372;52.294;5.152;2023-05-07T06:24:01;101709.22;;;13.46;100.00
51289;BME280;37372;52.294;5.152;2023-05-07T06:26:27;101714.44;;;13.54;99.74
51289;BME280;37372;52.294;5.152;2023-05-07T06:28:52;101718.41;;;13.58;98.94
51289;BME280;37372;52.294;5.152;2023-05-07T06:31:19;101719.13;;;13.72;99.07
51289;BME280;37372;52.294;5.152;2023-05-07T06:34:00;101728.06;;;13.86;100.00
51289;BME280;37372;52.294;5.152;2023-05-07T06:36:27;101720.84;;;13.85;98.36
51289;BME280;37372;52.294;5.152;2023-05-07T06:38:53;101719.03;;;13.78;98.03
51289;BME280;37372;52.294;5.152;2023-05-07T06:41:18;101725.22;;;13.92;98.13
51289;BME280;37372;52.294;5.152;2023-05-07T06:43:43;101724.75;;;13.77;97.32
51289;BME280;37372;52.294;5.152;2023-05-07T06:46:09;101726.31;;;13.73;97.91
51289;BME280;37372;52.294;5.152;2023-05-07T06:48:34;101729.50;;;13.88;98.70
51289;BME280;37372;52.294;5.152;2023-05-07T06:51:00;101723.16;;;13.88;97.21
51289;BME280;37372;52.294;5.152;2023-05-07T06:53:25;101725.31;;;13.86;97.28
51289;BME280;37372;52.294;5.152;2023-05-07T06:56:01;101728.19;;;13.91;97.09
51289;BME280;37372;52.294;5.152;2023-05-07T06:58:26;101735.94;;;14.00;97.48
51289;BME280;37372;52.294;5.152;2023-05-07T07:00:53;101736.84;;;14.13;97.62
51289;BME280;37372;52.294;5.152;2023-05-07T07:03:23;101731.81;;;14.21;96.92
51289;BME280;37372;52.294;5.152;2023-05-07T07:06:02;101733.31;;;14.05;96.33
51289;BME280;37372;52.294;5.152;2023-05-07T07:08:28;101742.53;;;13.99;97.20
51289;BME280;37372;52.294;5.152;2023-05-07T07:11:02;101737.38;;;14.03;97.35
51289;BME280;37372;52.294;5.152;2023-05-07T07:13:28;101737.09;;;14.11;98.33
51289;BME280;37372;52.294;5.152;2023-05-07T07:15:54;101739.13;;;14.46;98.00
51289;BME280;37372;52.294;5.152;2023-05-07T07:18:19;101731.41;;;14.66;97.38
51289;BME280;37372;52.294;5.152;2023-05-07T07:20:47;101727.69;;;14.60;96.11
51289;BME280;37372;52.294;5.152;2023-05-07T07:23:16;101729.75;;;14.65;96.61
51289;BME280;37372;52.294;5.152;2023-05-07T07:25:41;101727.13;;;14.70;95.34
51289;BME280;37372;52.294;5.152;2023-05-07T07:28:07;101733.75;;;14.93;94.55
51289;BME280;37372;52.294;5.152;2023-05-07T07:30:33;101724.28;;;14.88;95.16
51289;BME280;37372;52.294;5.152;2023-05-07T07:32:58;101729.03;;;14.70;94.69
51289;BME280;37372;52.294;5.152;2023-05-07T07:35:32;101731.06;;;14.74;95.07
51289;BME280;37372;52.294;5.152;2023-05-07T07:37:58;101731.69;;;14.76;95.37
51289;BME280;37372;52.294;5.152;2023-05-07T07:40:23;101718.72;;;15.00;95.43
51289;BME280;37372;52.294;5.152;2023-05-07T07:42:53;101715.50;;;15.03;94.37
51289;BME280;37372;52.294;5.152;2023-05-07T07:45:19;101725.75;;;15.14;93.60
51289;BME280;37372;52.294;5.152;2023-05-07T07:47:47;101726.22;;;15.23;94.14
51289;BME280;37372;52.294;5.152;2023-05-07T07:50:13;101731.63;;;15.53;93.37
51289;BME280;37372;52.294;5.152;2023-05-07T07:52:39;101729.56;;;15.37;91.85
51289;BME280;37372;52.294;5.152;2023-05-07T07:55:06;101726.91;;;15.07;92.75
51289;BME280;37372;52.294;5.152;2023-05-07T07:57:32;101731.75;;;15.23;93.70
51289;BME280;37372;52.294;5.152;2023-05-07T07:59:58;101726.22;;;15.47;93.41
51289;BME280;37372;52.294;5.152;2023-05-07T08:02:24;101724.41;;;15.64;91.94
51289;BME280;37372;52.294;5.152;2023-05-07T08:04:49;101725.94;;;15.60;91.39
51289;BME280;37372;52.294;5.152;2023-05-07T08:07:18;101720.34;;;15.95;91.31
51289;BME280;37372;52.294;5.152;2023-05-07T08:09:46;101715.78;;;16.01;89.76
51289;BME280;37372;52.294;5.152;2023-05-07T08:12:13;101721.81;;;15.97;88.56
51289;BME280;37372;52.294;5.152;2023-05-07T08:14:39;101713.06;;;15.77;89.89
51289;BME280;37372;52.294;5.152;2023-05-07T08:17:06;101721.47;;;15.82;90.56
51289;BME280;37372;52.294;5.152;2023-05-07T08:19:31;101730.41;;;16.13;89.51
51289;BME280;37372;52.294;5.152;2023-05-07T08:21:58;101726.22;;;16.10;87.68
51289;BME280;37372;52.294;5.152;2023-05-07T08:24:27;101730.03;;;15.69;89.06
51289;BME280;37372;52.294;5.152;2023-05-07T08:26:52;101728.50;;;15.73;89.22
51289;BME280;37372;52.294;5.152;2023-05-07T08:29:17;101728.06;;;15.93;89.98
51289;BME280;37372;52.294;5.152;2023-05-07T08:31:46;101734.56;;;16.27;88.75
51289;BME280;37372;52.294;5.152;2023-05-07T08:34:19;101745.97;;;16.42;87.84
51289;BME280;37372;52.294;5.152;2023-05-07T08:36:44;101742.03;;;16.27;87.88
51289;BME280;37372;52.294;5.152;2023-05-07T08:39:13;101738.88;;;16.06;88.41
51289;BME280;37372;52.294;5.152;2023-05-07T08:41:39;101745.06;;;16.25;89.17
51289;BME280;37372;52.294;5.152;2023-05-07T08:44:06;101754.69;;;16.51;87.74
51289;BME280;37372;52.294;5.152;2023-05-07T08:46:37;101753.03;;;16.50;88.67
51289;BME280;37372;52.294;5.152;2023-05-07T08:49:03;101755.19;;;16.48;87.89
51289;BME280;37372;52.294;5.152;2023-05-07T08:51:28;101759.56;;;16.44;86.56
51289;BME280;37372;52.294;5.152;2023-05-07T08:53:54;101762.16;;;16.22;87.59
51289;BME280;37372;52.294;5.152;2023-05-07T08:56:24;101759.38;;;16.22;87.34
51289;BME280;37372;52.294;5.152;2023-05-07T08:58:53;101763.31;;;16.38;86.99
51289;BME280;37372;52.294;5.152;2023-05-07T09:01:24;101758.28;;;16.80;86.61
51289;BME280;37372;52.294;5.152;2023-05-07T09:03:51;101759.13;;;16.81;83.93
51289;BME280;37372;52.294;5.152;2023-05-07T09:06:23;101766.88;;;16.50;85.90
51289;BME280;37372;52.294;5.152;2023-05-07T09:08:50;101765.78;;;16.68;83.92
51289;BME280;37372;52.294;5.152;2023-05-07T09:11:25;101758.13;;;16.70;85.82
51289;BME280;37372;52.294;5.152;2023-05-07T09:13:58;101767.06;;;16.89;84.79
51289;BME280;37372;52.294;5.152;2023-05-07T09:16:29;101766.22;;;16.88;83.83
51289;BME280;37372;52.294;5.152;2023-05-07T09:18:58;101771.00;;;16.64;83.69
51289;BME280;37372;52.294;5.152;2023-05-07T09:21:44;101764.50;;;16.87;84.43
51289;BME280;37372;52.294;5.152;2023-05-07T09:24:09;101766.28;;;16.76;82.22
51289;BME280;37372;52.294;5.152;2023-05-07T09:26:35;101764.97;;;16.96;82.23
51289;BME280;37372;52.294;5.152;2023-05-07T09:29:00;101766.69;;;16.85;82.77
51289;BME280;37372;52.294;5.152;2023-05-07T09:31:27;101758.47;;;16.90;84.18
51289;BME280;37372;52.294;5.152;2023-05-07T09:33:54;101762.84;;;17.03;83.68
51289;BME280;37372;52.294;5.152;2023-05-07T09:36:20;101759.81;;;17.04;82.46
51289;BME280;37372;52.294;5.152;2023-05-07T09:38:46;101766.47;;;17.03;82.74
51289;BME280;37372;52.294;5.152;2023-05-07T09:41:12;101759.91;;;17.10;82.35
51289;BME280;37372;52.294;5.152;2023-05-07T09:43:40;101761.50;;;17.05;81.28
51289;BME280;37372;52.294;5.152;2023-05-07T09:46:13;101758.03;;;17.49;80.54
51289;BME280;37372;52.294;5.152;2023-05-07T09:48:48;101760.81;;;17.32;80.32
51289;BME280;37372;52.294;5.152;2023-05-07T09:53:48;101764.47;;;17.32;77.90
51289;BME280;37372;52.294;5.152;2023-05-07T09:56:16;101760.28;;;17.13;78.82
51289;BME280;37372;52.294;5.152;2023-05-07T09:58:43;101753.53;;;17.09;79.31
51289;BME280;37372;52.294;5.152;2023-05-07T10:01:11;101754.78;;;17.18;79.87
51289;BME280;37372;52.294;5.152;2023-05-07T10:03:44;101748.13;;;17.36;81.30
51289;BME280;37372;52.294;5.152;2023-05-07T10:06:11;101750.81;;;17.48;79.30
51289;BME280;37372;52.294;5.152;2023-05-07T10:08:42;101753.66;;;17.53;77.47
51289;BME280;37372;52.294;5.152;2023-05-07T10:11:09;101749.84;;;17.76;77.10
51289;BME280;37372;52.294;5.152;2023-05-07T10:13:38;101758.31;;;18.08;76.25
51289;BME280;37372;52.294;5.152;2023-05-07T10:16:25;101754.97;;;18.06;75.19
51289;BME280;37372;52.294;5.152;2023-05-07T10:18:50;101757.72;;;18.28;76.00
51289;BME280;37372;52.294;5.152;2023-05-07T10:21:18;101762.34;;;18.44;74.60
51289;BME280;37372;52.294;5.152;2023-05-07T10:23:45;101758.31;;;18.30;74.83
51289;BME280;37372;52.294;5.152;2023-05-07T10:26:14;101761.41;;;18.60;72.87
51289;BME280;37372;52.294;5.152;2023-05-07T10:28:43;101765.75;;;18.73;73.29
51289;BME280;37372;52.294;5.152;2023-05-07T10:31:51;101767.78;;;18.83;72.36
51289;BME280;37372;52.294;5.152;2023-05-07T10:34:25;101760.38;;;18.66;72.50
51289;BME280;37372;52.294;5.152;2023-05-07T10:36:52;101763.41;;;18.38;72.12
51289;BME280;37372;52.294;5.152;2023-05-07T10:39:20;101757.69;;;18.50;72.30
51289;BME280;37372;52.294;5.152;2023-05-07T10:41:46;101764.25;;;18.65;72.23
51289;BME280;37372;52.294;5.152;2023-05-07T10:44:11;101765.88;;;18.61;72.16
51289;BME280;37372;52.294;5.152;2023-05-07T10:47:06;101770.13;;;18.96;71.99
51289;BME280;37372;52.294;5.152;2023-05-07T10:49:35;101781.69;;;18.83;69.84
51289;BME280;37372;52.294;5.152;2023-05-07T10:52:21;101771.09;;;18.80;70.59
51289;BME280;37372;52.294;5.152;2023-05-07T10:57:42;101768.34;;;19.17;70.92
51289;BME280;37372;52.294;5.152;2023-05-07T11:05:34;101764.41;;;19.87;68.32
51289;BME280;37372;52.294;5.152;2023-05-07T11:08:01;101757.69;;;19.83;66.69
51289;BME280;37372;52.294;5.152;2023-05-07T11:10:50;101773.06;;;19.96;67.56
51289;BME280;37372;52.294;5.152;2023-05-07T11:13:17;101763.78;;;20.38;64.41
51289;BME280;37372;52.294;5.152;2023-05-07T11:15:47;101758.06;;;20.02;65.40
51289;BME280;37372;52.294;5.152;2023-05-07T11:18:16;101770.16;;;20.33;67.01
51289;BME280;37372;52.294;5.152;2023-05-07T11:20:52;101769.53;;;20.11;66.50
51289;BME280;37372;52.294;5.152;2023-05-07T11:26:03;101764.22;;;19.19;67.20
51289;BME280;37372;52.294;5.152;2023-05-07T11:28:30;101772.44;;;19.41;66.47
51289;BME280;37372;52.294;5.152;2023-05-07T11:30:57;101777.09;;;19.31;66.40
51289;BME280;37372;52.294;5.152;2023-05-07T11:33:23;101775.13;;;19.31;65.39
51289;BME280;37372;52.294;5.152;2023-05-07T11:35:53;101766.81;;;19.68;67.21
51289;BME280;37372;52.294;5.152;2023-05-07T11:38:19;101772.94;;;19.65;66.21
51289;BME280;37372;52.294;5.152;2023-05-07T11:41:00;101772.13;;;19.75;64.43
51289;BME280;37372;52.294;5.152;2023-05-07T11:43:31;101775.34;;;20.04;66.11
51289;BME280;37372;52.294;5.152;2023-05-07T11:46:17;101766.59;;;19.80;64.37
51289;BME280;37372;52.294;5.152;2023-05-07T11:48:43;101767.22;;;19.92;63.49
51289;BME280;37372;52.294;5.152;2023-05-07T11:51:08;101766.28;;;20.39;62.63
51289;BME280;37372;52.294;5.152;2023-05-07T11:53:45;101771.03;;;20.44;63.74
51289;BME280;37372;52.294;5.152;2023-05-07T11:56:17;101777.59;;;21.00;64.36
51289;BME280;37372;52.294;5.152;2023-05-07T11:59:01;101779.78;;;20.83;62.90
51289;BME280;37372;52.294;5.152;2023-05-07T12:01:30;101781.41;;;20.59;62.28
51289;BME280;37372;52.294;5.152;2023-05-07T12:04:03;101775.63;;;21.16;62.45
51289;BME280;37372;52.294;5.152;2023-05-07T12:06:36;101777.00;;;21.19;61.61
51289;BME280;37372;52.294;5.152;2023-05-07T12:09:15;101774.50;;;21.12;59.79
51289;BME280;37372;52.294;5.152;2023-05-07T12:11:46;101779.53;;;21.05;61.35
51289;BME280;37372;52.294;5.152;2023-05-07T12:14:11;101780.53;;;20.48;62.01
51289;BME280;37372;52.294;5.152;2023-05-07T12:16:39;101777.19;;;20.46;62.33
51289;BME280;37372;52.294;5.152;2023-05-07T12:19:05;101775.28;;;20.51;61.90
51289;BME280;37372;52.294;5.152;2023-05-07T12:21:34;101777.78;;;20.58;61.70
51289;BME280;37372;52.294;5.152;2023-05-07T12:24:01;101783.00;;;20.39;59.36
51289;BME280;37372;52.294;5.152;2023-05-07T12:26:27;101781.97;;;20.55;59.83
51289;BME280;37372;52.294;5.152;2023-05-07T12:28:53;101780.91;;;20.92;58.65
51289;BME280;37372;52.294;5.152;2023-05-07T12:31:19;101772.75;;;20.50;59.59
51289;BME280;37372;52.294;5.152;2023-05-07T12:33:45;101776.94;;;20.52;60.16
51289;BME280;37372;52.294;5.152;2023-05-07T12:36:12;101773.59;;;20.45;59.86
51289;BME280;37372;52.294;5.152;2023-05-07T12:38:40;101774.63;;;20.34;59.59
51289;BME280;37372;52.294;5.152;2023-05-07T12:41:08;101774.19;;;20.68;61.06
51289;BME280;37372;52.294;5.152;2023-05-07T12:43:34;101775.63;;;21.11;60.21
51289;BME280;37372;52.294;5.152;2023-05-07T12:46:03;101767.25;;;21.11;58.25
51289;BME280;37372;52.294;5.152;2023-05-07T12:48:32;101775.34;;;20.97;58.40
51289;BME280;37372;52.294;5.152;2023-05-07T12:50:59;101771.16;;;21.20;57.56
51289;BME280;37372;52.294;5.152;2023-05-07T12:53:26;101775.88;;;21.25;57.57
51289;BME280;37372;52.294;5.152;2023-05-07T12:55:54;101778.97;;;21.49;58.64
51289;BME280;37372;52.294;5.152;2023-05-07T12:58:24;101777.59;;;21.26;58.58
51289;BME280;37372;52.294;5.152;2023-05-07T13:00:54;101788.72;;;21.05;58.33
51289;BME280;37372;52.294;5.152;2023-05-07T13:03:34;101788.69;;;20.80;58.17
51289;BME280;37372;52.294;5.152;2023-05-07T13:06:06;101785.66;;;20.81;58.37